createdAt,value
2019-02-24T00:00:33.808Z,2.00
2019-02-24T00:02:06.147Z,2.07
2019-02-24T00:03:38.698Z,2.77
2019-02-24T00:05:11.105Z,2.50
2019-02-24T00:06:43.429Z,2.30
2019-02-24T00:08:15.847Z,2.37
2019-02-24T00:09:48.176Z,2.63
2019-02-24T00:11:20.573Z,2.60
2019-02-24T00:12:53.104Z,2.53
2019-02-24T00:14:25.511Z,2.37
2019-02-24T00:15:57.919Z,3.00
2019-02-24T00:17:30.370Z,2.60
2019-02-24T00:19:03.860Z,2.97
2019-02-24T00:20:36.663Z,2.93
2019-02-24T00:24:09.091Z,2.47
2019-02-24T00:25:41.856Z,2.13
2019-02-24T00:27:14.251Z,2.17
2019-02-24T00:28:46.766Z,2.27
2019-02-24T00:30:19.187Z,2.47
2019-02-24T00:31:51.518Z,2.40
2019-02-24T00:33:23.921Z,2.50
2019-02-24T00:34:56.345Z,2.57
2019-02-24T00:36:28.810Z,2.50
2019-02-24T00:38:01.215Z,2.50
2019-02-24T00:39:33.580Z,2.80
2019-02-24T00:41:06.047Z,2.53
2019-02-24T00:42:38.379Z,2.37
2019-02-24T00:44:10.850Z,2.43
2019-02-24T00:45:43.279Z,2.67
2019-02-24T00:47:15.608Z,2.70
2019-02-24T00:48:48.079Z,2.90
2019-02-24T00:50:20.462Z,2.20
2019-02-24T00:51:52.798Z,2.13
2019-02-24T00:53:25.574Z,2.57
2019-02-24T00:54:58.051Z,2.50
2019-02-24T00:56:30.391Z,2.43
2019-02-24T00:58:02.723Z,2.30
2019-02-24T00:59:35.197Z,2.30
2019-02-24T01:01:07.629Z,2.30
2019-02-24T01:02:40.018Z,2.40
2019-02-24T01:04:12.421Z,2.57
2019-02-24T01:05:44.847Z,2.27
2019-02-24T01:07:17.261Z,2.23
2019-02-24T01:08:49.653Z,2.53
2019-02-24T01:10:22.051Z,2.30
2019-02-24T01:11:54.467Z,2.30
2019-02-24T01:13:26.790Z,2.43
2019-02-24T01:14:59.123Z,2.30
2019-02-24T01:16:31.543Z,2.13
2019-02-24T01:18:03.941Z,2.50
2019-02-24T01:19:36.272Z,2.40
2019-02-24T01:21:08.671Z,2.20
2019-02-24T01:22:41.165Z,2.27
2019-02-24T01:24:13.563Z,1.90
2019-02-24T01:25:46.026Z,2.07
2019-02-24T01:27:18.447Z,2.30
2019-02-24T01:28:51.042Z,2.03
2019-02-24T01:30:23.508Z,2.50
2019-02-24T01:31:55.904Z,1.93
2019-02-24T01:33:28.327Z,2.53
2019-02-24T01:35:00.721Z,2.10
2019-02-24T01:36:33.118Z,2.17
2019-02-24T01:38:05.459Z,2.00
2019-02-24T01:39:37.848Z,2.30
2019-02-24T01:41:10.245Z,2.10
2019-02-24T01:42:42.660Z,2.10
2019-02-24T01:44:15.059Z,1.80
2019-02-24T01:45:47.535Z,2.03
2019-02-24T01:47:19.934Z,2.27
2019-02-24T01:48:52.342Z,2.20
2019-02-24T01:50:24.819Z,2.20
2019-02-24T01:51:57.150Z,2.57
2019-02-24T01:53:29.569Z,2.17
2019-02-24T01:55:01.966Z,2.50
2019-02-24T01:56:34.295Z,1.83
2019-02-24T01:58:06.649Z,2.20
2019-02-24T01:59:39.134Z,2.20
2019-02-24T02:01:11.463Z,2.00
2019-02-24T02:02:43.864Z,2.47
2019-02-24T02:04:16.371Z,2.00
2019-02-24T02:05:48.820Z,2.40
2019-02-24T02:07:21.218Z,2.23
2019-02-24T02:08:53.607Z,2.20
2019-02-24T02:10:25.951Z,2.20
2019-02-24T02:11:58.357Z,2.30
2019-02-24T02:13:30.681Z,2.37
2019-02-24T02:15:03.034Z,2.47
2019-02-24T02:16:35.444Z,1.80
2019-02-24T02:18:07.921Z,2.40
2019-02-24T02:19:40.310Z,2.37
2019-02-24T02:21:12.726Z,2.20
2019-02-24T02:22:45.126Z,1.90
2019-02-24T02:24:17.453Z,2.13
2019-02-24T02:25:49.874Z,1.83
2019-02-24T02:27:22.270Z,2.17
2019-02-24T02:28:54.608Z,2.30
2019-02-24T02:30:27.019Z,2.60
2019-02-24T02:31:59.419Z,2.20
2019-02-24T02:33:31.750Z,2.10
2019-02-24T02:35:04.143Z,2.13
2019-02-24T02:36:36.562Z,2.30
2019-02-24T02:38:08.906Z,2.50
2019-02-24T02:39:41.366Z,2.17
2019-02-24T02:41:13.854Z,2.33
2019-02-24T02:42:46.257Z,2.67
2019-02-24T02:44:18.724Z,2.53
2019-02-24T02:45:51.189Z,2.47
2019-02-24T02:47:23.546Z,2.83
2019-02-24T02:48:55.874Z,2.20
2019-02-24T02:50:28.266Z,1.97
2019-02-24T02:52:00.612Z,2.20
2019-02-24T02:53:33.015Z,2.90
2019-02-24T02:55:05.416Z,2.03
2019-02-24T02:56:37.819Z,2.43
2019-02-24T02:58:10.243Z,2.40
2019-02-24T02:59:42.642Z,2.23
2019-02-24T03:01:14.969Z,2.30
2019-02-24T03:02:47.382Z,2.70
2019-02-24T03:04:19.788Z,2.40
2019-02-24T03:05:52.126Z,2.37
2019-02-24T03:07:24.586Z,2.33
2019-02-24T03:08:57.005Z,2.17
2019-02-24T03:10:29.337Z,2.00
2019-02-24T03:12:01.807Z,2.43
2019-02-24T03:13:34.229Z,2.50
2019-02-24T03:15:06.622Z,2.27
2019-02-24T03:16:39.082Z,2.73
2019-02-24T03:18:11.498Z,2.47
2019-02-24T03:19:43.843Z,2.20
2019-02-24T03:21:16.208Z,2.30
2019-02-24T03:22:48.590Z,2.20
2019-02-24T03:24:20.942Z,2.23
2019-02-24T03:25:53.339Z,2.03
2019-02-24T03:27:25.771Z,2.27
2019-02-24T03:29:04.170Z,2.20
2019-02-24T03:30:32.214Z,2.30
2019-02-24T03:32:04.621Z,2.43
2019-02-24T03:33:37.040Z,2.50
2019-02-24T03:35:09.507Z,2.53
2019-02-24T03:36:41.907Z,2.60
2019-02-24T03:38:14.236Z,2.03
2019-02-24T03:39:46.738Z,2.50
2019-02-24T03:41:19.229Z,2.13
2019-02-24T03:42:51.790Z,2.10
2019-02-24T03:44:24.136Z,2.60
2019-02-24T03:45:56.470Z,2.40
2019-02-24T03:47:28.886Z,2.03
2019-02-24T03:49:01.211Z,2.20
2019-02-24T03:50:33.619Z,2.63
2019-02-24T03:52:06.012Z,1.90
2019-02-24T03:53:38.425Z,2.47
2019-02-24T03:55:10.771Z,2.40
2019-02-24T03:56:43.174Z,1.90
2019-02-24T03:58:15.648Z,2.20
2019-02-24T03:59:48.075Z,2.53
2019-02-24T04:01:20.487Z,2.37
2019-02-24T04:02:52.891Z,2.30
2019-02-24T04:04:25.287Z,2.10
2019-02-24T04:05:57.626Z,2.07
2019-02-24T04:07:30.028Z,2.10
2019-02-24T04:09:02.376Z,2.17
2019-02-24T04:10:34.775Z,2.53
2019-02-24T04:12:07.095Z,2.30
2019-02-24T04:13:39.487Z,2.30
2019-02-24T04:15:11.817Z,2.17
2019-02-24T04:16:44.318Z,2.20
2019-02-24T04:18:16.743Z,2.43
2019-02-24T04:19:49.149Z,2.20
2019-02-24T04:21:21.504Z,2.07
2019-02-24T04:22:53.902Z,2.10
2019-02-24T04:24:26.230Z,2.10
2019-02-24T04:25:58.699Z,2.00
2019-02-24T04:27:31.108Z,2.13
2019-02-24T04:29:03.510Z,2.40
2019-02-24T04:30:35.978Z,2.20
2019-02-24T04:32:08.382Z,2.70
2019-02-24T04:33:40.710Z,2.20
2019-02-24T04:35:13.115Z,2.07
2019-02-24T04:36:45.509Z,2.50
2019-02-24T04:38:17.934Z,2.17
2019-02-24T04:39:50.335Z,2.00
2019-02-24T04:41:22.742Z,2.33
2019-02-24T04:42:55.151Z,2.37
2019-02-24T04:44:29.182Z,2.53
2019-02-24T04:46:01.578Z,2.13
2019-02-24T04:47:34.007Z,2.27
2019-02-24T04:49:06.463Z,2.33
2019-02-24T04:50:38.882Z,2.30
2019-02-24T04:52:11.216Z,2.30
2019-02-24T04:53:43.782Z,2.53
2019-02-24T04:55:16.179Z,2.20
2019-02-24T04:56:48.584Z,2.33
2019-02-24T04:58:21.066Z,2.17
2019-02-24T04:59:53.542Z,2.37
2019-02-24T05:01:25.946Z,2.03
2019-02-24T05:02:58.413Z,2.37
2019-02-24T05:04:30.915Z,2.47
2019-02-24T05:06:03.324Z,2.20
2019-02-24T05:07:35.733Z,2.50
2019-02-24T05:09:08.216Z,2.43
2019-02-24T05:10:40.538Z,2.43
2019-02-24T05:12:13.330Z,2.60
2019-02-24T05:13:45.929Z,2.20
2019-02-24T05:15:18.289Z,2.10
2019-02-24T05:16:50.626Z,2.30
2019-02-24T05:18:23.266Z,2.03
2019-02-24T05:19:55.782Z,2.23
2019-02-24T05:21:28.701Z,2.40
2019-02-24T05:23:01.103Z,2.10
2019-02-24T05:24:33.550Z,2.20
2019-02-24T05:26:05.949Z,2.27
2019-02-24T05:27:38.420Z,2.37
2019-02-24T05:29:10.830Z,2.27
2019-02-24T05:30:43.318Z,2.20
2019-02-24T05:32:15.710Z,2.43
2019-02-24T05:33:48.036Z,2.10
2019-02-24T05:35:20.451Z,2.40
2019-02-24T05:36:52.779Z,2.47
2019-02-24T05:38:25.105Z,2.40
2019-02-24T05:39:57.574Z,2.53
2019-02-24T05:41:30.058Z,2.00
2019-02-24T05:43:02.467Z,2.00
2019-02-24T05:44:34.943Z,2.37
2019-02-24T05:46:07.428Z,2.63
2019-02-24T05:47:39.804Z,2.43
2019-02-24T05:49:12.234Z,1.73
2019-02-24T05:50:44.697Z,2.47
2019-02-24T05:52:17.051Z,2.40
2019-02-24T05:53:49.455Z,2.27
2019-02-24T05:55:21.854Z,1.97
2019-02-24T05:56:54.278Z,2.50
2019-02-24T05:58:26.980Z,2.40
2019-02-24T05:59:59.451Z,2.20
2019-02-24T06:01:31.858Z,2.50
2019-02-24T06:03:04.275Z,2.63
2019-02-24T06:04:36.597Z,1.80
2019-02-24T06:06:08.922Z,2.40
2019-02-24T06:07:41.330Z,2.70
2019-02-24T06:09:13.735Z,2.10
2019-02-24T06:10:46.057Z,2.10
2019-02-24T06:12:18.462Z,2.37
2019-02-24T06:13:52.152Z,2.43
2019-02-24T06:15:24.705Z,2.00
2019-02-24T06:16:57.096Z,2.30
2019-02-24T06:18:29.524Z,2.40
2019-02-24T06:20:01.923Z,2.37
2019-02-24T06:21:34.317Z,2.70
2019-02-24T06:23:06.806Z,2.53
2019-02-24T06:24:39.210Z,2.80
2019-02-24T06:26:11.608Z,2.60
2019-02-24T06:27:44.088Z,2.30
2019-02-24T06:29:16.451Z,2.50
2019-02-24T06:30:48.918Z,2.43
2019-02-24T06:32:21.326Z,2.37
2019-02-24T06:33:53.751Z,2.27
2019-02-24T06:35:26.143Z,2.40
2019-02-24T06:36:58.535Z,2.63
2019-02-24T06:38:30.924Z,2.37
2019-02-24T06:40:03.771Z,2.53
2019-02-24T06:41:36.175Z,2.70
2019-02-24T06:43:08.498Z,2.47
2019-02-24T06:44:40.991Z,2.40
2019-02-24T06:46:13.390Z,2.43
2019-02-24T06:47:45.851Z,2.80
2019-02-24T06:49:18.387Z,2.30
2019-02-24T06:50:50.967Z,2.60
2019-02-24T06:52:23.359Z,2.43
2019-02-24T06:53:55.703Z,2.63
2019-02-24T06:55:28.050Z,2.70
2019-02-24T06:57:00.384Z,2.57
2019-02-24T06:58:32.788Z,2.60
2019-02-24T07:00:13.597Z,2.73
2019-02-24T07:01:39.295Z,2.40
2019-02-24T07:03:11.695Z,2.70
2019-02-24T07:04:44.326Z,2.40
2019-02-24T07:06:16.750Z,2.60
2019-02-24T07:07:49.214Z,2.70
2019-02-24T07:09:21.611Z,2.53
2019-02-24T07:10:54.113Z,2.57
2019-02-24T07:12:26.511Z,2.70
2019-02-24T07:13:58.911Z,2.57
2019-02-24T07:15:31.254Z,2.53
2019-02-24T07:17:03.676Z,2.87
2019-02-24T07:18:36.070Z,2.50
2019-02-24T07:20:08.399Z,2.63
2019-02-24T07:21:40.810Z,2.57
2019-02-24T07:23:13.212Z,2.50
2019-02-24T07:24:45.602Z,2.30
2019-02-24T07:26:18.026Z,2.27
2019-02-24T07:27:50.463Z,2.43
2019-02-24T07:29:22.784Z,2.97
2019-02-24T07:30:55.174Z,2.53
2019-02-24T07:32:27.586Z,2.50
2019-02-24T07:33:59.907Z,2.43
2019-02-24T07:35:32.311Z,2.67
2019-02-24T07:37:12.738Z,2.13
2019-02-24T07:38:38.782Z,2.40
2019-02-24T07:40:12.745Z,2.53
2019-02-24T07:41:45.135Z,2.83
2019-02-24T07:43:17.533Z,2.67
2019-02-24T07:44:49.936Z,2.47
2019-02-24T07:46:22.334Z,2.23
2019-02-24T07:47:54.698Z,2.67
2019-02-24T07:49:27.146Z,2.87
2019-02-24T07:50:59.542Z,2.20
2019-02-24T07:52:31.866Z,2.40
2019-02-24T07:54:04.391Z,2.90
2019-02-24T07:55:36.732Z,2.93
2019-02-24T07:57:09.055Z,2.93
2019-02-24T07:58:41.459Z,3.10
2019-02-24T08:00:13.863Z,2.87
2019-02-24T08:01:46.189Z,3.30
2019-02-24T08:03:18.758Z,2.80
2019-02-24T08:04:51.178Z,2.53
2019-02-24T08:06:23.571Z,3.03
2019-02-24T08:07:55.969Z,2.53
2019-02-24T08:09:28.396Z,2.40
2019-02-24T08:11:00.720Z,2.70
2019-02-24T08:12:33.419Z,2.73
2019-02-24T08:14:06.102Z,2.57
2019-02-24T08:15:38.527Z,2.37
2019-02-24T08:17:11.234Z,2.67
2019-02-24T08:18:49.540Z,3.03
2019-02-24T08:20:18.863Z,2.70
2019-02-24T08:21:51.723Z,2.60
2019-02-24T08:23:24.674Z,3.37
2019-02-24T08:24:57.211Z,2.60
2019-02-24T08:26:30.706Z,2.80
2019-02-24T08:28:04.235Z,2.80
2019-02-24T08:29:36.856Z,3.20
2019-02-24T08:31:09.535Z,2.97
2019-02-24T08:32:42.537Z,3.43
2019-02-24T08:34:16.802Z,2.80
2019-02-24T08:35:50.782Z,3.03
2019-02-24T08:37:24.661Z,2.90
2019-02-24T08:38:57.182Z,2.70
2019-02-24T08:40:29.917Z,3.30
2019-02-24T08:42:02.746Z,3.13
2019-02-24T08:43:35.425Z,3.57
2019-02-24T08:45:07.890Z,3.53
2019-02-24T08:46:40.315Z,3.10
2019-02-24T08:48:12.646Z,3.47
2019-02-24T08:49:44.971Z,3.33
2019-02-24T08:51:18.625Z,3.43
2019-02-24T08:52:50.966Z,3.20
2019-02-24T08:54:24.663Z,3.40
2019-02-24T08:55:57.018Z,2.90
2019-02-24T08:57:29.675Z,3.57
2019-02-24T08:59:02.066Z,3.47
2019-02-24T09:00:34.469Z,3.60
2019-02-24T09:02:06.820Z,3.60
2019-02-24T09:03:39.293Z,3.90
2019-02-24T09:05:11.695Z,3.60
2019-02-24T09:06:44.024Z,3.47
2019-02-24T09:08:16.450Z,4.07
2019-02-24T09:09:49.115Z,3.67
2019-02-24T09:11:21.439Z,3.83
2019-02-24T09:12:53.846Z,3.70
2019-02-24T09:14:26.242Z,3.27
2019-02-24T09:15:58.769Z,4.10
2019-02-24T09:17:31.432Z,3.50
2019-02-24T09:19:04.027Z,3.80
2019-02-24T09:20:36.354Z,3.87
2019-02-24T09:22:08.766Z,3.80
2019-02-24T09:23:41.111Z,3.77
2019-02-24T09:25:13.516Z,4.13
2019-02-24T09:26:45.842Z,3.93
2019-02-24T09:28:18.337Z,4.00
2019-02-24T09:29:50.831Z,4.30
2019-02-24T09:31:23.723Z,3.93
2019-02-24T09:32:56.121Z,4.30
2019-02-24T09:34:28.463Z,3.83
2019-02-24T09:36:00.859Z,4.17
2019-02-24T09:37:33.355Z,4.53
2019-02-24T09:39:05.707Z,3.83
2019-02-24T09:40:38.038Z,4.07
2019-02-24T09:42:10.438Z,4.17
2019-02-24T09:43:42.772Z,3.90
2019-02-24T09:45:15.187Z,4.17
2019-02-24T09:46:47.651Z,3.97
2019-02-24T09:48:19.983Z,4.23
2019-02-24T09:49:52.401Z,4.50
2019-02-24T09:51:24.873Z,4.50
2019-02-24T09:52:57.226Z,4.63
2019-02-24T09:54:29.701Z,4.20
2019-02-24T09:56:02.415Z,3.97
2019-02-24T09:57:36.907Z,4.47
2019-02-24T09:59:08.967Z,4.17
2019-02-24T10:00:41.361Z,4.30
2019-02-24T10:02:13.765Z,4.37
2019-02-24T10:03:46.098Z,4.50
2019-02-24T10:05:18.564Z,4.03
2019-02-24T10:06:50.991Z,4.50
2019-02-24T10:08:23.543Z,4.37
2019-02-24T10:09:56.049Z,4.57
2019-02-24T10:11:28.400Z,4.27
2019-02-24T10:13:00.798Z,3.93
2019-02-24T10:14:33.229Z,4.77
2019-02-24T10:16:05.639Z,3.93
2019-02-24T10:17:37.984Z,3.97
2019-02-24T10:19:10.371Z,4.50
2019-02-24T10:20:42.708Z,4.70
2019-02-24T10:22:15.558Z,4.30
2019-02-24T10:23:47.951Z,4.17
2019-02-24T10:25:20.308Z,4.03
2019-02-24T10:26:52.707Z,4.23
2019-02-24T10:28:25.106Z,4.50
2019-02-24T10:29:57.435Z,4.00
2019-02-24T10:31:29.768Z,4.20
2019-02-24T10:33:02.190Z,4.23
2019-02-24T10:34:34.589Z,3.87
2019-02-24T10:36:06.987Z,4.47
2019-02-24T10:37:39.405Z,4.50
2019-02-24T10:39:11.811Z,4.93
2019-02-24T10:40:44.279Z,4.00
2019-02-24T10:42:16.675Z,4.80
2019-02-24T10:43:49.019Z,4.53
2019-02-24T10:45:21.423Z,3.87
2019-02-24T10:46:53.829Z,4.70
2019-02-24T10:48:26.272Z,4.60
2019-02-24T10:49:58.752Z,4.10
2019-02-24T10:51:31.151Z,4.63
2019-02-24T10:53:03.583Z,4.13
2019-02-24T10:54:35.994Z,4.70
2019-02-24T10:56:08.467Z,4.40
2019-02-24T10:57:40.867Z,4.30
2019-02-24T10:59:13.279Z,4.33
2019-02-24T11:00:45.674Z,4.70
2019-02-24T11:02:18.019Z,4.23
2019-02-24T11:03:50.687Z,4.33
2019-02-24T11:05:23.098Z,4.30
2019-02-24T11:06:55.440Z,4.13
2019-02-24T11:08:27.775Z,4.13
2019-02-24T11:10:00.352Z,5.10
2019-02-24T11:11:32.802Z,4.53
2019-02-24T11:13:05.273Z,5.10
2019-02-24T11:14:37.758Z,4.10
2019-02-24T11:16:10.082Z,4.37
2019-02-24T11:17:42.477Z,4.77
2019-02-24T11:19:14.877Z,4.47
2019-02-24T11:20:47.221Z,4.53
2019-02-24T11:22:19.687Z,4.50
2019-02-24T11:23:52.086Z,4.63
2019-02-24T11:25:24.739Z,4.50
2019-02-24T11:26:57.215Z,4.63
2019-02-24T11:28:29.542Z,4.57
2019-02-24T11:30:01.867Z,4.17
2019-02-24T11:31:38.427Z,4.57
2019-02-24T11:33:08.377Z,4.23
2019-02-24T11:34:40.699Z,4.00
2019-02-24T11:36:13.187Z,4.57
2019-02-24T11:37:45.585Z,4.30
2019-02-24T11:39:17.902Z,4.67
2019-02-24T11:40:50.321Z,4.40
2019-02-24T11:42:22.887Z,4.37
2019-02-24T11:43:55.278Z,4.60
2019-02-24T11:45:27.615Z,4.70
2019-02-24T11:47:00.080Z,3.80
2019-02-24T11:48:32.426Z,4.83
2019-02-24T11:50:04.840Z,4.43
2019-02-24T11:51:37.183Z,4.30
2019-02-24T11:53:09.506Z,4.60
2019-02-24T11:54:41.901Z,3.90
2019-02-24T11:56:14.302Z,4.63
2019-02-24T11:57:46.638Z,4.30
2019-02-24T11:59:19.039Z,4.33
2019-02-24T12:00:51.360Z,4.13
2019-02-24T12:02:23.708Z,4.50
2019-02-24T12:03:56.111Z,4.50
2019-02-24T12:05:28.437Z,4.00
2019-02-24T12:07:00.780Z,4.67
2019-02-24T12:08:33.275Z,4.23
2019-02-24T12:10:05.670Z,4.57
2019-02-24T12:11:38.076Z,4.23
2019-02-24T12:13:10.498Z,4.50
2019-02-24T12:14:43.194Z,3.77
2019-02-24T12:16:15.526Z,4.03
2019-02-24T12:17:47.950Z,4.50
2019-02-24T12:19:20.357Z,4.70
2019-02-24T12:20:52.764Z,4.30
2019-02-24T12:22:25.093Z,4.50
2019-02-24T12:23:57.520Z,4.40
2019-02-24T12:25:29.922Z,4.50
2019-02-24T12:27:02.390Z,4.47
2019-02-24T12:28:34.810Z,4.43
2019-02-24T12:30:07.150Z,4.40
2019-02-24T12:31:39.614Z,4.40
2019-02-24T12:33:12.111Z,4.43
2019-02-24T12:34:44.510Z,4.60
2019-02-24T12:36:16.917Z,4.13
2019-02-24T12:37:49.395Z,4.43
2019-02-24T12:39:21.732Z,5.03
2019-02-24T12:40:54.439Z,4.40
2019-02-24T12:42:26.928Z,4.33
2019-02-24T12:43:59.348Z,4.53
2019-02-24T12:45:31.970Z,4.60
2019-02-24T12:47:04.434Z,4.53
2019-02-24T12:48:36.854Z,4.50
2019-02-24T12:50:09.272Z,4.20
2019-02-24T12:51:41.674Z,4.33
2019-02-24T12:53:16.184Z,4.80
2019-02-24T12:54:48.597Z,4.13
2019-02-24T12:56:20.924Z,4.17
2019-02-24T12:57:53.251Z,4.20
2019-02-24T12:59:25.658Z,4.70
2019-02-24T13:00:58.120Z,4.80
2019-02-24T13:02:30.482Z,4.67
2019-02-24T13:04:02.878Z,4.70
2019-02-24T13:05:35.291Z,4.13
2019-02-24T13:07:07.696Z,4.43
2019-02-24T13:08:40.099Z,4.73
2019-02-24T13:10:12.515Z,4.97
2019-02-24T13:11:44.918Z,4.07
2019-02-24T13:13:17.310Z,4.53
2019-02-24T13:14:49.702Z,4.13
2019-02-24T13:16:22.052Z,4.80
2019-02-24T13:17:54.442Z,4.20
2019-02-24T13:19:27.138Z,4.63
2019-02-24T13:20:59.569Z,4.67
2019-02-24T13:22:32.036Z,4.50
2019-02-24T13:24:04.508Z,4.40
2019-02-24T13:25:36.936Z,4.40
2019-02-24T13:27:09.336Z,4.87
2019-02-24T13:28:50.104Z,5.03
2019-02-24T13:30:15.897Z,4.17
2019-02-24T13:31:48.322Z,4.80
2019-02-24T13:33:20.794Z,3.97
2019-02-24T13:34:53.198Z,4.70
2019-02-24T13:36:25.616Z,4.70
2019-02-24T13:37:57.981Z,4.13
2019-02-24T13:39:30.386Z,4.90
2019-02-24T13:41:02.788Z,5.20
2019-02-24T13:42:35.303Z,4.50
2019-02-24T13:44:07.672Z,4.63
2019-02-24T13:45:40.075Z,4.50
2019-02-24T13:47:12.494Z,4.40
2019-02-24T13:48:44.832Z,4.33
2019-02-24T13:50:17.303Z,4.57
2019-02-24T13:51:49.762Z,3.97
2019-02-24T13:53:22.222Z,4.10
2019-02-24T13:54:54.619Z,4.47
2019-02-24T13:56:26.950Z,4.10
2019-02-24T13:57:59.630Z,4.60
2019-02-24T13:59:32.094Z,4.67
2019-02-24T14:01:04.573Z,4.27
2019-02-24T14:02:36.975Z,4.63
2019-02-24T14:04:09.386Z,4.10
2019-02-24T14:05:41.780Z,4.03
2019-02-24T14:07:14.109Z,4.30
2019-02-24T14:08:46.599Z,4.60
2019-02-24T14:10:18.995Z,4.53
2019-02-24T14:11:52.340Z,4.00
2019-02-24T14:13:24.754Z,4.23
2019-02-24T14:14:57.108Z,4.20
2019-02-24T14:16:29.433Z,4.13
2019-02-24T14:18:02.042Z,4.17
2019-02-24T14:19:34.467Z,4.50
2019-02-24T14:21:06.870Z,4.70
2019-02-24T14:22:39.199Z,4.77
2019-02-24T14:24:11.618Z,4.90
2019-02-24T14:25:44.107Z,4.70
2019-02-24T14:27:16.451Z,4.97
2019-02-24T14:28:48.926Z,4.10
2019-02-24T14:30:21.339Z,4.50
2019-02-24T14:31:53.680Z,4.50
2019-02-24T14:33:26.150Z,4.30
2019-02-24T14:34:58.566Z,4.60
2019-02-24T14:36:30.914Z,4.50
2019-02-24T14:38:03.353Z,4.20
2019-02-24T14:39:35.747Z,4.20
2019-02-24T14:41:08.977Z,4.57
2019-02-24T14:42:41.476Z,4.07
2019-02-24T14:44:13.925Z,4.43
2019-02-24T14:45:49.666Z,4.03
2019-02-24T14:47:20.855Z,4.20
2019-02-24T14:48:53.192Z,4.63
2019-02-24T14:50:25.598Z,3.73
2019-02-24T14:51:57.963Z,4.40
2019-02-24T14:53:30.438Z,4.23
2019-02-24T14:55:02.773Z,4.57
2019-02-24T14:56:35.199Z,4.03
2019-02-24T14:58:07.859Z,4.17
2019-02-24T14:59:40.267Z,3.87
2019-02-24T15:01:12.663Z,4.10
2019-02-24T15:02:45.083Z,4.00
2019-02-24T15:04:17.658Z,4.37
2019-02-24T15:05:50.055Z,3.80
2019-02-24T15:07:22.583Z,3.77
2019-02-24T15:08:54.919Z,3.60
2019-02-24T15:10:27.339Z,3.70
2019-02-24T15:11:59.904Z,4.20
2019-02-24T15:13:32.262Z,3.57
2019-02-24T15:15:05.038Z,4.23
2019-02-24T15:16:37.438Z,4.80
2019-02-24T15:18:09.783Z,4.07
2019-02-24T15:19:42.195Z,4.67
2019-02-24T15:21:14.684Z,3.75
2019-02-24T15:22:47.029Z,3.90
2019-02-24T15:24:19.452Z,3.97
2019-02-24T15:25:51.864Z,4.07
2019-02-24T15:27:24.326Z,3.60
2019-02-24T15:28:56.747Z,3.47
2019-02-24T15:30:29.149Z,3.97
2019-02-24T15:32:01.567Z,3.87
2019-02-24T15:33:34.063Z,3.60
2019-02-24T15:35:06.604Z,3.20
2019-02-24T15:36:39.022Z,3.43
2019-02-24T15:38:11.451Z,3.23
2019-02-24T15:39:43.884Z,3.40
2019-02-24T15:41:16.211Z,3.20
2019-02-24T15:42:48.533Z,3.30
2019-02-24T15:44:20.963Z,3.50
2019-02-24T15:45:53.374Z,3.00
2019-02-24T15:47:25.774Z,3.13
2019-02-24T15:48:58.267Z,3.07
2019-02-24T15:50:30.602Z,2.80
2019-02-24T15:52:09.680Z,3.10
2019-02-24T15:53:37.042Z,3.13
2019-02-24T15:55:09.390Z,2.80
2019-02-24T15:56:41.790Z,2.90
2019-02-24T15:58:14.188Z,2.70
2019-02-24T15:59:46.599Z,2.70
2019-02-24T16:01:21.279Z,2.80
2019-02-24T16:03:02.427Z,2.73
2019-02-24T16:04:35.515Z,2.80
2019-02-24T16:06:07.937Z,3.20
2019-02-24T16:07:40.348Z,2.63
2019-02-24T16:09:12.675Z,2.90
2019-02-24T16:10:45.095Z,2.63
2019-02-24T16:12:17.495Z,2.80
2019-02-24T16:13:49.823Z,2.87
2019-02-24T16:15:22.346Z,2.37
2019-02-24T16:16:54.815Z,2.17
2019-02-24T16:18:27.138Z,2.30
2019-02-24T16:19:59.530Z,2.97
2019-02-24T16:21:31.960Z,2.93
2019-02-24T16:23:04.364Z,2.77
2019-02-24T16:24:36.773Z,2.80
2019-02-24T16:26:09.275Z,2.80
2019-02-24T16:27:41.675Z,2.80
2019-02-24T16:29:14.075Z,3.17
2019-02-24T16:30:46.486Z,3.20
2019-02-24T16:32:18.880Z,4.17
2019-02-24T16:33:51.471Z,3.70
2019-02-24T16:35:23.876Z,3.77
2019-02-24T16:36:56.291Z,4.10
2019-02-24T16:38:28.611Z,4.20
2019-02-24T16:40:01.014Z,3.83
2019-02-24T16:41:33.414Z,3.83
2019-02-24T16:43:05.827Z,3.77
2019-02-24T16:44:38.215Z,3.80
2019-02-24T16:46:10.543Z,4.40
2019-02-24T16:47:42.958Z,4.70
2019-02-24T16:49:15.364Z,4.83
2019-02-24T16:50:47.691Z,5.37
2019-02-24T16:52:20.103Z,5.43
2019-02-24T16:53:52.527Z,5.23
2019-02-24T16:55:24.855Z,5.20
2019-02-24T16:57:04.740Z,5.10
2019-02-24T16:58:31.359Z,5.27
2019-02-24T17:00:03.687Z,5.60
2019-02-24T17:01:36.084Z,4.93
2019-02-24T17:03:08.573Z,5.20
2019-02-24T17:04:53.012Z,4.47
2019-02-24T17:06:24.286Z,5.20
2019-02-24T17:08:05.009Z,4.93
2019-02-24T17:09:47.820Z,5.10
2019-02-24T17:11:28.565Z,4.53
2019-02-24T17:13:12.069Z,4.67
2019-02-24T17:14:46.964Z,4.63
2019-02-24T17:16:19.738Z,4.33
2019-02-24T17:17:52.295Z,5.07
2019-02-24T17:19:24.852Z,5.13
2019-02-24T17:20:57.179Z,4.67
2019-02-24T17:22:29.664Z,4.90
2019-02-24T17:24:02.007Z,4.63
2019-02-24T17:25:34.406Z,4.47
2019-02-24T17:27:07.080Z,4.80
2019-02-24T17:28:39.590Z,5.23
2019-02-24T17:30:11.991Z,4.67
2019-02-24T17:31:44.393Z,5.10
2019-02-24T17:33:17.851Z,4.47
2019-02-24T17:34:50.235Z,4.33
2019-02-24T17:36:22.822Z,4.63
2019-02-24T17:37:55.540Z,4.53
2019-02-24T17:39:28.004Z,4.43
2019-02-24T17:41:15.715Z,4.43
2019-02-24T17:42:52.576Z,4.37
2019-02-24T17:44:25.182Z,4.70
2019-02-24T17:45:57.595Z,5.37
2019-02-24T17:47:29.943Z,4.17
2019-02-24T17:49:02.435Z,5.23
2019-02-24T17:50:34.937Z,4.70
2019-02-24T17:52:07.360Z,4.63
2019-02-24T17:53:40.063Z,4.37
2019-02-24T17:55:12.492Z,4.97
2019-02-24T17:56:44.885Z,4.67
2019-02-24T17:58:17.313Z,4.83
2019-02-24T17:59:49.645Z,4.53
2019-02-24T18:01:22.067Z,5.33
2019-02-24T18:02:54.474Z,4.70
2019-02-24T18:04:26.943Z,4.83
2019-02-24T18:05:59.363Z,4.90
2019-02-24T18:07:31.754Z,5.33
2019-02-24T18:09:04.149Z,4.70
2019-02-24T18:10:36.943Z,5.40
2019-02-24T18:12:09.661Z,5.00
2019-02-24T18:13:42.131Z,4.93
2019-02-24T18:15:14.499Z,4.83
2019-02-24T18:16:46.914Z,4.60
2019-02-24T18:18:19.976Z,5.10
2019-02-24T18:19:52.374Z,5.07
2019-02-24T18:21:24.791Z,5.10
2019-02-24T18:22:57.358Z,4.87
2019-02-24T18:24:29.794Z,4.60
2019-02-24T18:26:02.187Z,4.73
2019-02-24T18:27:34.595Z,4.77
2019-02-24T18:29:06.925Z,5.40
2019-02-24T18:30:39.323Z,5.47
2019-02-24T18:32:11.822Z,5.23
2019-02-24T18:33:48.397Z,5.40
2019-02-24T18:35:18.399Z,5.10
2019-02-24T18:36:50.949Z,5.33
2019-02-24T18:38:23.367Z,5.30
2019-02-24T18:39:55.836Z,5.70
2019-02-24T18:41:28.235Z,5.40
2019-02-24T18:43:00.902Z,5.00
2019-02-24T18:44:33.407Z,5.07
2019-02-24T18:46:05.816Z,5.80
2019-02-24T18:47:38.583Z,5.57
2019-02-24T18:49:11.119Z,6.20
2019-02-24T18:50:43.700Z,5.93
2019-02-24T18:52:16.097Z,5.90
2019-02-24T18:53:48.524Z,5.83
2019-02-24T18:55:20.994Z,5.70
2019-02-24T18:56:53.398Z,6.43
2019-02-24T18:58:25.797Z,6.10
2019-02-24T18:59:58.211Z,6.23
2019-02-24T19:01:30.616Z,5.90
2019-02-24T19:03:03.735Z,6.17
2019-02-24T19:04:43.331Z,6.03
2019-02-24T19:06:18.799Z,5.70
2019-02-24T19:07:51.199Z,5.73
2019-02-24T19:09:23.782Z,6.03
2019-02-24T19:10:56.245Z,5.83
2019-02-24T19:12:28.842Z,6.03
2019-02-24T19:14:09.296Z,5.93
2019-02-24T19:15:42.139Z,5.80
2019-02-24T19:17:15.107Z,6.07
2019-02-24T19:18:47.511Z,6.10
2019-02-24T19:20:19.925Z,6.20
2019-02-24T19:21:53.144Z,6.13
2019-02-24T19:23:25.630Z,6.00
2019-02-24T19:24:58.055Z,6.47
2019-02-24T19:26:30.663Z,5.63
2019-02-24T19:28:03.143Z,6.23
2019-02-24T19:29:35.775Z,6.03
2019-02-24T19:31:08.528Z,6.93
2019-02-24T19:32:40.963Z,6.47
2019-02-24T19:34:13.302Z,6.30
2019-02-24T19:35:45.786Z,6.87
2019-02-24T19:37:20.798Z,6.83
2019-02-24T19:38:52.591Z,6.43
2019-02-24T19:40:25.088Z,6.17
2019-02-24T19:41:57.674Z,6.97
2019-02-24T19:43:30.110Z,6.60
2019-02-24T19:45:02.698Z,6.23
2019-02-24T19:46:35.302Z,5.97
2019-02-24T19:48:07.771Z,6.10
2019-02-24T19:49:40.254Z,6.07
2019-02-24T19:51:12.752Z,6.17
2019-02-24T19:52:45.411Z,6.27
2019-02-24T19:54:17.903Z,5.70
2019-02-24T19:55:50.321Z,5.97
2019-02-24T19:57:23.121Z,6.27
2019-02-24T19:58:55.706Z,6.10
2019-02-24T20:00:28.191Z,6.00
2019-02-24T20:02:00.599Z,6.60
2019-02-24T20:03:33.094Z,6.47
2019-02-24T20:05:05.587Z,6.57
2019-02-24T20:06:37.995Z,5.97
2019-02-24T20:08:10.475Z,6.13
2019-02-24T20:09:43.332Z,5.83
2019-02-24T20:11:15.776Z,6.13
2019-02-24T20:12:48.190Z,6.40
2019-02-24T20:14:20.694Z,6.07
2019-02-24T20:15:53.099Z,6.17
2019-02-24T20:17:25.767Z,5.53
2019-02-24T20:18:58.193Z,5.93
2019-02-24T20:20:30.542Z,6.30
2019-02-24T20:22:03.015Z,6.63
2019-02-24T20:23:35.623Z,6.47
2019-02-24T20:25:08.238Z,6.73
2019-02-24T20:26:40.647Z,6.33
2019-02-24T20:28:13.210Z,6.77
2019-02-24T20:29:45.572Z,6.80
2019-02-24T20:31:17.968Z,6.93
2019-02-24T20:32:50.367Z,6.60
2019-02-24T20:34:25.593Z,6.57